createdAt,value
2019-03-10T00:00:02.016Z,95648
2019-03-10T00:01:11.530Z,95647
2019-03-10T00:02:21.037Z,95656
2019-03-10T00:03:30.540Z,95651
2019-03-10T00:04:40.050Z,95645
2019-03-10T00:05:49.566Z,95647
2019-03-10T00:06:59.122Z,95642
2019-03-10T00:08:08.618Z,95635
2019-03-10T00:09:18.141Z,95637
2019-03-10T00:10:27.638Z,95619
2019-03-10T00:11:37.158Z,95646
2019-03-10T00:12:46.668Z,95634
2019-03-10T00:13:56.172Z,95652
2019-03-10T00:15:05.683Z,95661
2019-03-10T00:16:15.225Z,95643
2019-03-10T00:17:24.718Z,95639
2019-03-10T00:18:34.221Z,95646
2019-03-10T00:19:43.724Z,95661
2019-03-10T00:20:53.233Z,95662
2019-03-10T00:22:02.754Z,95645
2019-03-10T00:23:12.258Z,95652
2019-03-10T00:24:21.755Z,95659
2019-03-10T00:25:31.262Z,95653
2019-03-10T00:26:40.785Z,95651
2019-03-10T00:27:50.296Z,95645
2019-03-10T00:28:59.799Z,95648
2019-03-10T00:30:09.313Z,95649
2019-03-10T00:31:18.835Z,95633
2019-03-10T00:32:28.355Z,95643
2019-03-10T00:33:37.867Z,95633
2019-03-10T00:34:47.373Z,95648
2019-03-10T00:35:56.878Z,95640
2019-03-10T00:37:06.408Z,95648
2019-03-10T00:38:16.014Z,95637
2019-03-10T00:39:25.532Z,95635
2019-03-10T00:40:35.034Z,95637
2019-03-10T00:41:44.564Z,95638
2019-03-10T00:42:54.069Z,95638
2019-03-10T00:44:03.566Z,95636
2019-03-10T00:45:14.061Z,95628
2019-03-10T00:46:23.583Z,95630
2019-03-10T00:47:33.083Z,95628
2019-03-10T00:48:42.595Z,95621
2019-03-10T00:49:52.101Z,95613
2019-03-10T00:51:01.605Z,95611
2019-03-10T00:52:11.121Z,95612
2019-03-10T00:53:20.625Z,95608
2019-03-10T00:54:31.129Z,95603
2019-03-10T00:55:40.632Z,95602
2019-03-10T00:56:50.162Z,95604
2019-03-10T00:57:59.671Z,95601
2019-03-10T00:59:09.177Z,95603
2019-03-10T01:00:18.682Z,95600
2019-03-10T01:01:28.194Z,95597
2019-03-10T01:02:37.724Z,95593
2019-03-10T01:03:47.229Z,95593
2019-03-10T01:04:56.736Z,95587
2019-03-10T01:06:06.247Z,95598
2019-03-10T01:07:15.770Z,95583
2019-03-10T01:08:25.279Z,95583
2019-03-10T01:09:34.787Z,95583
2019-03-10T01:10:44.303Z,95578
2019-03-10T01:11:53.821Z,95578
2019-03-10T01:13:03.323Z,95585
2019-03-10T01:14:14.476Z,95578
2019-03-10T01:15:22.328Z,95570
2019-03-10T01:16:31.840Z,95570
2019-03-10T01:17:41.376Z,95571
2019-03-10T01:18:50.878Z,95567
2019-03-10T01:20:00.389Z,95572
2019-03-10T01:21:09.891Z,95568
2019-03-10T01:22:19.419Z,95576
2019-03-10T01:23:28.917Z,95579
2019-03-10T01:24:38.427Z,95572
2019-03-10T01:25:47.933Z,95570
2019-03-10T01:26:57.472Z,95563
2019-03-10T01:28:07.031Z,95570
2019-03-10T01:29:16.531Z,95572
2019-03-10T01:30:26.043Z,95572
2019-03-10T01:31:35.544Z,95572
2019-03-10T01:32:45.064Z,95587
2019-03-10T01:33:54.584Z,95561
2019-03-10T01:35:04.079Z,95570
2019-03-10T01:36:13.579Z,95563
2019-03-10T01:37:23.100Z,95555
2019-03-10T01:38:32.606Z,95560
2019-03-10T01:39:42.105Z,95549
2019-03-10T01:40:51.628Z,95556
2019-03-10T01:42:01.140Z,95545
2019-03-10T01:43:10.645Z,95542
2019-03-10T01:44:20.148Z,95546
2019-03-10T01:45:29.655Z,95534
2019-03-10T01:46:39.161Z,95528
2019-03-10T01:47:48.668Z,95540
2019-03-10T01:48:58.170Z,95528
2019-03-10T01:50:07.678Z,95527
2019-03-10T01:51:17.209Z,95522
2019-03-10T01:52:26.700Z,95518
2019-03-10T01:53:36.200Z,95519
2019-03-10T01:54:45.703Z,95541
2019-03-10T01:55:55.210Z,95522
2019-03-10T01:57:04.733Z,95519
2019-03-10T01:58:14.234Z,95513
2019-03-10T01:59:23.735Z,95508
2019-03-10T02:00:33.251Z,95507
2019-03-10T02:01:42.754Z,95502
2019-03-10T02:02:52.276Z,95502
2019-03-10T02:04:01.792Z,95490
2019-03-10T02:05:11.290Z,95483
2019-03-10T02:06:20.796Z,95486
2019-03-10T02:07:30.312Z,95489
2019-03-10T02:08:39.924Z,95486
2019-03-10T02:09:49.509Z,95482
2019-03-10T02:10:58.975Z,95473
2019-03-10T02:12:08.481Z,95472
2019-03-10T02:13:17.999Z,95463
2019-03-10T02:14:27.507Z,95461
2019-03-10T02:15:37.024Z,95449
2019-03-10T02:16:46.528Z,95456
2019-03-10T02:17:56.065Z,95444
2019-03-10T02:19:05.584Z,95453
2019-03-10T02:20:15.086Z,95460
2019-03-10T02:21:24.607Z,95450
2019-03-10T02:22:34.132Z,95452
2019-03-10T02:23:43.654Z,95448
2019-03-10T02:24:53.161Z,95447
2019-03-10T02:26:02.665Z,95441
2019-03-10T02:27:12.172Z,95438
2019-03-10T02:28:21.710Z,95438
2019-03-10T02:29:31.210Z,95436
2019-03-10T02:30:40.714Z,95433
2019-03-10T02:31:50.215Z,95430
2019-03-10T02:32:59.759Z,95435
2019-03-10T02:34:09.243Z,95438
2019-03-10T02:35:18.751Z,95446
2019-03-10T02:36:28.255Z,95445
2019-03-10T02:37:37.783Z,95440
2019-03-10T02:38:47.279Z,95440
2019-03-10T02:39:56.788Z,95434
2019-03-10T02:41:06.291Z,95438
2019-03-10T02:42:15.832Z,95454
2019-03-10T02:43:25.469Z,95444
2019-03-10T02:44:34.991Z,95426
2019-03-10T02:45:44.503Z,95432
2019-03-10T02:46:54.011Z,95426
2019-03-10T02:48:03.532Z,95422
2019-03-10T02:49:13.041Z,95419
2019-03-10T02:50:22.549Z,95414
2019-03-10T02:51:32.059Z,95422
2019-03-10T02:52:41.576Z,95416
2019-03-10T02:53:51.105Z,95419
2019-03-10T02:55:00.606Z,95426
2019-03-10T02:56:10.109Z,95427
2019-03-10T02:57:19.615Z,95419
2019-03-10T02:58:29.130Z,95419
2019-03-10T02:59:39.670Z,95419
2019-03-10T03:00:49.241Z,95417
2019-03-10T03:01:58.760Z,95406
2019-03-10T03:03:08.279Z,95411
2019-03-10T03:04:17.782Z,95406
2019-03-10T03:05:27.287Z,95411
2019-03-10T03:06:36.796Z,95414
2019-03-10T03:07:47.322Z,95411
2019-03-10T03:08:56.833Z,95413
2019-03-10T03:10:06.350Z,95411
2019-03-10T03:11:15.852Z,95412
2019-03-10T03:12:25.356Z,95415
2019-03-10T03:13:34.869Z,95410
2019-03-10T03:14:44.374Z,95400
2019-03-10T03:15:53.959Z,95404
2019-03-10T03:17:03.473Z,95396
2019-03-10T03:18:13.034Z,95395
2019-03-10T03:19:22.569Z,95390
2019-03-10T03:20:32.099Z,95393
2019-03-10T03:21:43.335Z,95392
2019-03-10T03:22:51.142Z,95383
2019-03-10T03:24:00.652Z,95391
2019-03-10T03:25:10.172Z,95383
2019-03-10T03:26:19.677Z,95382
2019-03-10T03:27:29.195Z,95378
2019-03-10T03:28:38.696Z,95374
2019-03-10T03:29:48.213Z,95375
2019-03-10T03:30:57.766Z,95373
2019-03-10T03:32:07.305Z,95376
2019-03-10T03:33:16.834Z,95361
2019-03-10T03:34:26.343Z,95364
2019-03-10T03:35:35.862Z,95382
2019-03-10T03:36:45.369Z,95353
2019-03-10T03:37:54.896Z,95367
2019-03-10T03:39:04.408Z,95364
2019-03-10T03:40:13.911Z,95380
2019-03-10T03:41:23.414Z,95383
2019-03-10T03:42:32.934Z,95382
2019-03-10T03:43:42.465Z,95377
2019-03-10T03:44:51.960Z,95390
2019-03-10T03:46:01.463Z,95377
2019-03-10T03:47:10.993Z,95387
2019-03-10T03:48:20.509Z,95382
2019-03-10T03:49:30.017Z,95404
2019-03-10T03:50:40.534Z,95390
2019-03-10T03:51:50.045Z,95409
2019-03-10T03:52:59.557Z,95424
2019-03-10T03:54:09.109Z,95404
2019-03-10T03:55:18.613Z,95414
2019-03-10T03:56:28.137Z,95427
2019-03-10T03:57:37.655Z,95434
2019-03-10T03:58:47.207Z,95392
2019-03-10T03:59:56.804Z,95380
2019-03-10T04:01:06.328Z,95371
2019-03-10T04:02:15.833Z,95391
2019-03-10T04:03:25.352Z,95374
2019-03-10T04:04:34.867Z,95367
2019-03-10T04:05:44.376Z,95366
2019-03-10T04:06:53.892Z,95365
2019-03-10T04:08:03.394Z,95362
2019-03-10T04:09:12.919Z,95363
2019-03-10T04:10:22.505Z,95357
2019-03-10T04:11:32.051Z,95350
2019-03-10T04:12:41.556Z,95346
2019-03-10T04:13:51.077Z,95345
2019-03-10T04:15:00.592Z,95338
2019-03-10T04:16:10.106Z,95336
2019-03-10T04:17:19.610Z,95328
2019-03-10T04:18:29.110Z,95333
2019-03-10T04:19:38.673Z,95335
2019-03-10T04:20:48.178Z,95334
2019-03-10T04:21:57.713Z,95327
2019-03-10T04:23:07.253Z,95336
2019-03-10T04:24:16.785Z,95332
2019-03-10T04:25:26.295Z,95328
2019-03-10T04:26:35.796Z,95322
2019-03-10T04:27:45.306Z,95326
2019-03-10T04:28:54.899Z,95330
2019-03-10T04:30:04.408Z,95326
2019-03-10T04:31:13.919Z,95327
2019-03-10T04:32:23.426Z,95326
2019-03-10T04:33:32.939Z,95322
2019-03-10T04:34:42.475Z,95326
2019-03-10T04:35:51.980Z,95326
2019-03-10T04:37:02.506Z,95323
2019-03-10T04:38:12.002Z,95324
2019-03-10T04:39:21.546Z,95322
2019-03-10T04:40:31.049Z,95320
2019-03-10T04:41:40.552Z,95319
2019-03-10T04:42:50.061Z,95322
2019-03-10T04:43:59.580Z,95325
2019-03-10T04:45:09.144Z,95322
2019-03-10T04:46:18.660Z,95321
2019-03-10T04:47:28.161Z,95314
2019-03-10T04:48:37.671Z,95310
2019-03-10T04:49:47.217Z,95313
2019-03-10T04:50:56.734Z,95316
2019-03-10T04:52:06.255Z,95317
2019-03-10T04:53:15.787Z,95314
2019-03-10T04:54:25.287Z,95319
2019-03-10T04:55:34.797Z,95306
2019-03-10T04:56:44.293Z,95298
2019-03-10T04:57:53.898Z,95294
2019-03-10T04:59:03.424Z,95298
2019-03-10T05:00:12.932Z,95301
2019-03-10T05:01:22.437Z,95293
2019-03-10T05:02:31.944Z,95286
2019-03-10T05:03:41.450Z,95282
2019-03-10T05:04:50.980Z,95283
2019-03-10T05:06:00.490Z,95273
2019-03-10T05:07:10.011Z,95269
2019-03-10T05:08:19.525Z,95265
2019-03-10T05:09:29.052Z,95262
2019-03-10T05:10:38.574Z,95248
2019-03-10T05:11:48.093Z,95246
2019-03-10T05:12:57.600Z,95245
2019-03-10T05:14:07.132Z,95250
2019-03-10T05:15:16.701Z,95247
2019-03-10T05:16:26.216Z,95233
2019-03-10T05:17:35.723Z,95226
2019-03-10T05:18:45.277Z,95229
2019-03-10T05:19:54.801Z,95222
2019-03-10T05:21:04.316Z,95217
2019-03-10T05:22:13.813Z,95219
2019-03-10T05:23:23.319Z,95212
2019-03-10T05:24:32.887Z,95218
2019-03-10T05:25:42.394Z,95202
2019-03-10T05:26:51.892Z,95200
2019-03-10T05:28:01.403Z,95194
2019-03-10T05:29:10.914Z,95188
2019-03-10T05:30:20.485Z,95181
2019-03-10T05:31:29.998Z,95171
2019-03-10T05:32:39.500Z,95164
2019-03-10T05:33:49.076Z,95162
2019-03-10T05:34:58.535Z,95155
2019-03-10T05:36:08.065Z,95153
2019-03-10T05:37:17.576Z,95155
2019-03-10T05:38:27.087Z,95155
2019-03-10T05:39:36.630Z,95154
2019-03-10T05:40:46.177Z,95150
2019-03-10T05:41:55.688Z,95143
2019-03-10T05:43:05.225Z,95139
2019-03-10T05:44:14.732Z,95126
2019-03-10T05:45:24.316Z,95130
2019-03-10T05:46:33.820Z,95123
2019-03-10T05:47:43.353Z,95118
2019-03-10T05:48:52.860Z,95120
2019-03-10T05:50:02.399Z,95118
2019-03-10T05:51:11.925Z,95119
2019-03-10T05:52:21.431Z,95112
2019-03-10T05:53:30.946Z,95109
2019-03-10T05:54:40.500Z,95103
2019-03-10T05:55:50.032Z,95091
2019-03-10T05:56:59.541Z,95093
2019-03-10T05:58:09.052Z,95091
2019-03-10T05:59:18.558Z,95089
2019-03-10T06:00:28.115Z,95082
2019-03-10T06:01:38.604Z,95080
2019-03-10T06:02:48.121Z,95078
2019-03-10T06:03:57.628Z,95076
2019-03-10T06:05:07.144Z,95070
2019-03-10T06:06:16.681Z,95075
2019-03-10T06:07:26.207Z,95076
2019-03-10T06:08:35.716Z,95079
2019-03-10T06:09:45.240Z,95075
2019-03-10T06:10:54.822Z,95075
2019-03-10T06:12:04.331Z,95066
2019-03-10T06:13:13.840Z,95062
2019-03-10T06:14:23.338Z,95061
2019-03-10T06:15:32.951Z,95048
2019-03-10T06:16:42.452Z,95050
2019-03-10T06:17:51.949Z,95058
2019-03-10T06:19:01.453Z,95048
2019-03-10T06:20:11.996Z,95055
2019-03-10T06:21:21.508Z,95055
2019-03-10T06:22:31.020Z,95044
2019-03-10T06:23:40.537Z,95050
2019-03-10T06:24:50.048Z,95062
2019-03-10T06:25:59.593Z,95062
2019-03-10T06:27:09.103Z,95045
2019-03-10T06:28:18.608Z,95037
2019-03-10T06:29:28.121Z,95053
2019-03-10T06:30:37.688Z,95047
2019-03-10T06:31:48.193Z,95046
2019-03-10T06:32:57.702Z,95044
2019-03-10T06:34:07.212Z,95040
2019-03-10T06:35:16.739Z,95034
2019-03-10T06:36:26.236Z,95022
2019-03-10T06:37:35.758Z,95011
2019-03-10T06:38:45.264Z,95004
2019-03-10T06:39:54.763Z,95007
2019-03-10T06:41:04.336Z,95011
2019-03-10T06:42:13.843Z,95013
2019-03-10T06:43:23.369Z,95010
2019-03-10T06:44:32.884Z,95002
2019-03-10T06:45:42.406Z,94998
2019-03-10T06:46:52.027Z,95002
2019-03-10T06:48:01.538Z,95001
2019-03-10T06:49:11.052Z,94992
2019-03-10T06:50:20.610Z,94994
2019-03-10T06:51:30.122Z,94987
2019-03-10T06:52:39.629Z,94979
2019-03-10T06:53:49.129Z,94967
2019-03-10T06:54:58.637Z,94977
2019-03-10T06:56:08.159Z,94975
2019-03-10T06:57:17.673Z,94978
2019-03-10T06:58:27.189Z,94978
2019-03-10T06:59:36.694Z,94979
2019-03-10T07:00:46.220Z,94977
2019-03-10T07:01:55.725Z,94978
2019-03-10T07:03:06.232Z,94978
2019-03-10T07:04:15.733Z,94978
2019-03-10T07:05:25.262Z,94978
2019-03-10T07:06:34.769Z,94963
2019-03-10T07:07:44.277Z,94957
2019-03-10T07:08:53.787Z,94958
2019-03-10T07:10:03.293Z,94953
2019-03-10T07:11:12.811Z,94946
2019-03-10T07:12:22.327Z,94950
2019-03-10T07:13:31.844Z,94942
2019-03-10T07:14:42.342Z,94936
2019-03-10T07:15:51.879Z,94935
2019-03-10T07:17:01.386Z,94942
2019-03-10T07:18:10.890Z,94934
2019-03-10T07:19:20.396Z,94935
2019-03-10T07:20:29.926Z,94939
2019-03-10T07:21:39.445Z,94927
2019-03-10T07:22:48.950Z,94932
2019-03-10T07:23:58.465Z,94925
2019-03-10T07:25:07.981Z,94923
2019-03-10T07:26:17.497Z,94922
2019-03-10T07:27:27.026Z,94915
2019-03-10T07:28:36.544Z,94920
2019-03-10T07:29:46.035Z,94919
2019-03-10T07:30:55.608Z,94915
2019-03-10T07:32:05.125Z,94917
2019-03-10T07:33:14.648Z,94913
2019-03-10T07:34:24.176Z,94906
2019-03-10T07:35:33.678Z,94908
2019-03-10T07:36:43.246Z,94904
2019-03-10T07:37:52.755Z,94908
2019-03-10T07:39:02.281Z,94902
2019-03-10T07:40:11.791Z,94903
2019-03-10T07:41:21.322Z,94905
2019-03-10T07:42:30.845Z,94902
2019-03-10T07:43:40.349Z,94897
2019-03-10T07:44:49.879Z,94897
2019-03-10T07:45:59.402Z,94897
2019-03-10T07:47:08.909Z,94891
2019-03-10T07:48:18.420Z,94888
2019-03-10T07:49:27.927Z,94890
2019-03-10T07:50:37.435Z,94902
2019-03-10T07:51:47.044Z,94900
2019-03-10T07:52:56.552Z,94901
2019-03-10T07:54:06.058Z,94896
2019-03-10T07:55:15.575Z,94896
2019-03-10T07:56:25.096Z,94886
2019-03-10T07:57:34.627Z,94893
2019-03-10T07:58:44.158Z,94887
2019-03-10T07:59:53.672Z,94894
2019-03-10T08:01:03.191Z,94889
2019-03-10T08:02:13.720Z,94887
2019-03-10T08:03:23.267Z,94882
2019-03-10T08:04:32.759Z,94880
2019-03-10T08:05:42.264Z,94877
2019-03-10T08:06:51.788Z,94883
2019-03-10T08:08:01.299Z,94875
2019-03-10T08:09:10.806Z,94887
2019-03-10T08:10:20.307Z,94873
2019-03-10T08:11:29.826Z,94875
2019-03-10T08:12:39.349Z,94876
2019-03-10T08:13:48.853Z,94888
2019-03-10T08:14:58.367Z,94895
2019-03-10T08:16:07.873Z,94884
2019-03-10T08:17:17.400Z,94880
2019-03-10T08:18:27.910Z,94883
2019-03-10T08:19:37.427Z,94889
2019-03-10T08:20:46.944Z,94896
2019-03-10T08:21:56.527Z,94884
2019-03-10T08:23:06.108Z,94893
2019-03-10T08:24:16.750Z,94885
2019-03-10T08:25:26.316Z,94898
2019-03-10T08:26:35.903Z,94894
2019-03-10T08:27:45.425Z,94900
2019-03-10T08:28:55.925Z,94898
2019-03-10T08:30:05.440Z,94883
2019-03-10T08:31:14.950Z,94899
2019-03-10T08:32:24.479Z,94909
2019-03-10T08:33:33.985Z,94886
2019-03-10T08:34:43.508Z,94890
2019-03-10T08:35:53.012Z,94875
2019-03-10T08:37:02.530Z,94893
2019-03-10T08:38:12.035Z,94904
2019-03-10T08:39:21.541Z,94886
2019-03-10T08:40:31.047Z,94883
2019-03-10T08:41:40.602Z,94878
2019-03-10T08:42:50.103Z,94871
2019-03-10T08:43:59.621Z,94886
2019-03-10T08:45:09.125Z,94872
2019-03-10T08:46:18.640Z,94893
2019-03-10T08:47:28.178Z,94847
2019-03-10T08:48:37.683Z,94893
2019-03-10T08:49:47.196Z,94864
2019-03-10T08:50:56.735Z,94875
2019-03-10T08:52:06.288Z,94872
2019-03-10T08:53:15.797Z,94871
2019-03-10T08:54:25.301Z,94875
2019-03-10T08:55:34.804Z,94915
2019-03-10T08:56:44.316Z,94873
2019-03-10T08:57:53.867Z,94891
2019-03-10T08:59:03.370Z,94866
2019-03-10T09:00:12.874Z,94888
2019-03-10T09:01:22.392Z,94937
2019-03-10T09:02:31.904Z,94879
2019-03-10T09:03:41.409Z,94880
2019-03-10T09:04:50.914Z,94870
2019-03-10T09:06:00.443Z,94879
2019-03-10T09:07:09.956Z,94860
2019-03-10T09:08:19.471Z,94880
2019-03-10T09:09:28.985Z,94868
2019-03-10T09:10:38.493Z,94909
2019-03-10T09:11:48.000Z,94871
2019-03-10T09:12:57.530Z,94871
2019-03-10T09:14:07.040Z,94847
2019-03-10T09:15:16.549Z,94873
2019-03-10T09:16:26.059Z,94867
2019-03-10T09:17:35.580Z,94871
2019-03-10T09:18:45.100Z,94860
2019-03-10T09:19:55.599Z,94843
2019-03-10T09:21:05.109Z,94861
2019-03-10T09:22:14.642Z,94853
2019-03-10T09:23:24.162Z,94855
2019-03-10T09:24:33.735Z,94841
2019-03-10T09:25:43.223Z,94843
2019-03-10T09:26:52.725Z,94847
2019-03-10T09:28:02.243Z,94823
2019-03-10T09:29:11.782Z,94870
2019-03-10T09:30:21.288Z,94819
2019-03-10T09:31:30.807Z,94813
2019-03-10T09:32:40.336Z,94832
2019-03-10T09:33:49.855Z,94843
2019-03-10T09:34:59.366Z,94837
2019-03-10T09:36:08.976Z,94865
2019-03-10T09:37:18.465Z,94840
2019-03-10T09:38:28.005Z,94838
2019-03-10T09:39:37.513Z,94806
2019-03-10T09:40:47.039Z,94830
2019-03-10T09:41:56.564Z,94858
2019-03-10T09:43:06.089Z,94838
2019-03-10T09:44:15.608Z,94832
2019-03-10T09:45:25.133Z,94808
2019-03-10T09:46:34.654Z,94852
2019-03-10T09:47:44.190Z,94829
2019-03-10T09:48:53.711Z,94822
2019-03-10T09:50:03.219Z,94856
2019-03-10T09:51:12.763Z,94877
2019-03-10T09:52:22.268Z,94902
2019-03-10T09:53:31.793Z,94832
2019-03-10T09:54:41.316Z,94839
2019-03-10T09:55:50.834Z,94832
2019-03-10T09:57:00.349Z,94876
2019-03-10T09:58:09.887Z,94848
2019-03-10T09:59:19.395Z,94836
2019-03-10T10:00:28.907Z,94861
2019-03-10T10:01:38.503Z,94862
2019-03-10T10:02:48.014Z,94899
2019-03-10T10:03:57.549Z,94880
2019-03-10T10:05:07.063Z,94879
2019-03-10T10:06:16.591Z,94870
2019-03-10T10:07:26.111Z,94859
2019-03-10T10:08:35.636Z,94894
2019-03-10T10:09:45.149Z,94875
2019-03-10T10:10:54.661Z,94865
2019-03-10T10:12:12.852Z,94878
2019-03-10T10:13:14.681Z,94859
2019-03-10T10:14:24.197Z,94844
2019-03-10T10:15:33.722Z,94853
2019-03-10T10:16:43.242Z,94853
2019-03-10T10:17:52.752Z,94852
2019-03-10T10:19:02.305Z,94851
2019-03-10T10:20:11.818Z,94852
2019-03-10T10:21:21.331Z,94859
2019-03-10T10:22:30.836Z,94865
2019-03-10T10:23:40.368Z,94874
2019-03-10T10:24:49.892Z,94890
2019-03-10T10:25:59.407Z,94873
2019-03-10T10:27:08.924Z,94889
2019-03-10T10:28:18.458Z,94882
2019-03-10T10:29:27.992Z,94872
2019-03-10T10:30:37.509Z,94875
2019-03-10T10:31:47.016Z,94861
2019-03-10T10:32:56.538Z,94877
2019-03-10T10:34:06.054Z,94862
2019-03-10T10:35:15.576Z,94900
2019-03-10T10:36:25.083Z,94896
2019-03-10T10:37:35.563Z,94901
2019-03-10T10:38:44.171Z,94894
2019-03-10T10:39:53.682Z,94915
2019-03-10T10:41:03.210Z,94893
2019-03-10T10:42:12.730Z,94893
2019-03-10T10:43:22.269Z,94890
2019-03-10T10:44:31.805Z,94897
2019-03-10T10:45:41.315Z,94872
2019-03-10T10:46:50.826Z,94860
2019-03-10T10:48:00.380Z,94872
2019-03-10T10:49:09.902Z,94876
2019-03-10T10:50:19.419Z,94872
2019-03-10T10:51:29.707Z,94899
2019-03-10T10:52:37.431Z,94859
2019-03-10T10:53:46.967Z,94860
2019-03-10T10:54:56.469Z,94854
2019-03-10T10:56:05.976Z,94844
2019-03-10T10:57:15.481Z,94853
2019-03-10T10:58:24.999Z,94862
2019-03-10T10:59:34.519Z,94840
2019-03-10T11:00:44.039Z,94838
2019-03-10T11:01:53.547Z,94842
2019-03-10T11:03:03.062Z,94834
2019-03-10T11:04:12.593Z,94841
2019-03-10T11:05:22.111Z,94824
2019-03-10T11:06:31.616Z,94817
2019-03-10T11:07:41.130Z,94837
2019-03-10T11:08:50.661Z,94815
2019-03-10T11:10:00.437Z,94830
2019-03-10T11:11:09.699Z,94847
2019-03-10T11:12:19.210Z,94830
2019-03-10T11:13:28.724Z,94821
2019-03-10T11:14:38.252Z,94821
2019-03-10T11:15:47.756Z,94824
2019-03-10T11:16:57.270Z,94803
2019-03-10T11:18:09.578Z,94806
2019-03-10T11:19:16.298Z,94803
2019-03-10T11:20:25.812Z,94812
2019-03-10T11:21:35.337Z,94803
2019-03-10T11:22:44.862Z,94806
2019-03-10T11:23:54.386Z,94812
2019-03-10T11:25:03.904Z,94808
2019-03-10T11:26:13.424Z,94813
2019-03-10T11:27:22.940Z,94795
2019-03-10T11:28:32.462Z,94790
2019-03-10T11:29:41.975Z,94802
2019-03-10T11:30:51.526Z,94772
2019-03-10T11:32:01.039Z,94787
2019-03-10T11:33:10.551Z,94764
2019-03-10T11:34:20.091Z,94769
2019-03-10T11:35:29.597Z,94764
2019-03-10T11:36:39.108Z,94756
2019-03-10T11:37:48.626Z,94758
2019-03-10T11:38:58.145Z,94763
2019-03-10T11:40:07.663Z,94792
2019-03-10T11:41:17.168Z,94761
2019-03-10T11:42:27.690Z,94752
2019-03-10T11:43:37.746Z,94748
2019-03-10T11:44:47.265Z,94740
2019-03-10T11:45:56.770Z,94749
2019-03-10T11:47:06.277Z,94758
2019-03-10T11:48:15.799Z,94738
2019-03-10T11:49:25.354Z,94754
2019-03-10T11:50:34.872Z,94734
2019-03-10T11:51:44.377Z,94751
2019-03-10T11:52:53.890Z,94733
2019-03-10T11:54:03.431Z,94729
2019-03-10T11:55:13.052Z,94729
2019-03-10T11:56:22.470Z,94727
2019-03-10T11:57:32.009Z,94725
2019-03-10T11:58:41.526Z,94730
2019-03-10T11:59:51.050Z,94728
2019-03-10T12:01:00.554Z,94720
2019-03-10T12:02:15.772Z,94715
2019-03-10T12:03:19.562Z,94719
2019-03-10T12:04:29.092Z,94733
2019-03-10T12:05:38.602Z,94719
2019-03-10T12:06:48.115Z,94734
2019-03-10T12:07:57.628Z,94716
2019-03-10T12:09:07.137Z,94723
2019-03-10T12:10:16.675Z,94723
2019-03-10T12:11:26.187Z,94719
2019-03-10T12:12:35.701Z,94721
2019-03-10T12:13:45.210Z,94719
2019-03-10T12:14:54.750Z,94722
2019-03-10T12:16:04.324Z,94709
2019-03-10T12:17:13.816Z,94699
2019-03-10T12:18:23.336Z,94713
2019-03-10T12:19:32.866Z,94716
2019-03-10T12:20:42.385Z,94707
2019-03-10T12:21:51.899Z,94728
2019-03-10T12:23:01.408Z,94701
2019-03-10T12:24:10.913Z,94749
2019-03-10T12:25:20.441Z,94715
2019-03-10T12:26:29.973Z,94713
2019-03-10T12:27:39.482Z,94700
2019-03-10T12:28:49.004Z,94712
2019-03-10T12:29:58.545Z,94718
2019-03-10T12:31:08.067Z,94689
2019-03-10T12:32:17.581Z,94695
2019-03-10T12:33:27.096Z,94695
2019-03-10T12:34:36.632Z,94678
2019-03-10T12:35:46.211Z,94694
2019-03-10T12:36:55.688Z,94698
2019-03-10T12:38:05.196Z,94709
2019-03-10T12:39:17.009Z,94730
2019-03-10T12:40:24.251Z,94666
2019-03-10T12:41:33.760Z,94672
2019-03-10T12:42:43.279Z,94672
2019-03-10T12:43:52.798Z,94681
2019-03-10T12:45:02.353Z,94716
2019-03-10T12:46:11.859Z,94706
2019-03-10T12:47:21.371Z,94687
2019-03-10T12:48:30.891Z,94685
2019-03-10T12:49:40.426Z,94686
2019-03-10T12:50:49.931Z,94664
2019-03-10T12:51:59.458Z,94675
2019-03-10T12:53:08.988Z,94681
2019-03-10T12:54:18.493Z,94685
2019-03-10T12:55:28.009Z,94678
2019-03-10T12:56:37.524Z,94709
2019-03-10T12:57:47.030Z,94702
2019-03-10T12:58:56.538Z,94677
2019-03-10T13:00:06.061Z,94671
2019-03-10T13:01:16.579Z,94631
2019-03-10T13:02:26.081Z,94664
2019-03-10T13:03:35.678Z,94680
2019-03-10T13:04:45.102Z,94678
2019-03-10T13:05:55.626Z,94686
2019-03-10T13:07:05.144Z,94674
2019-03-10T13:08:14.654Z,94707
2019-03-10T13:09:24.167Z,94670
2019-03-10T13:10:33.743Z,94663
2019-03-10T13:11:43.259Z,94711
2019-03-10T13:12:52.768Z,94696
2019-03-10T13:14:02.289Z,94674
2019-03-10T13:15:11.817Z,94675
2019-03-10T13:16:21.348Z,94683
2019-03-10T13:17:30.865Z,94677
2019-03-10T13:18:40.381Z,94671
2019-03-10T13:19:49.915Z,94677
2019-03-10T13:20:59.458Z,94673
2019-03-10T13:22:08.965Z,94700
2019-03-10T13:23:18.482Z,94696
2019-03-10T13:24:27.992Z,94677
2019-03-10T13:25:37.517Z,94710
2019-03-10T13:26:47.119Z,94695
2019-03-10T13:27:56.750Z,94652
2019-03-10T13:29:06.304Z,94661
2019-03-10T13:30:15.831Z,94683
2019-03-10T13:31:25.336Z,94674
2019-03-10T13:32:34.844Z,94679
2019-03-10T13:33:44.366Z,94652
2019-03-10T13:34:53.874Z,94679
2019-03-10T13:36:03.405Z,94664
2019-03-10T13:37:12.957Z,94691
2019-03-10T13:38:22.465Z,94758
2019-03-10T13:39:31.975Z,94675
2019-03-10T13:40:41.500Z,94672
2019-03-10T13:41:51.024Z,94669
2019-03-10T13:43:00.657Z,94693
2019-03-10T13:44:10.211Z,94690
2019-03-10T13:45:19.798Z,94732
2019-03-10T13:46:29.352Z,94687
2019-03-10T13:47:38.874Z,94652
2019-03-10T13:48:48.390Z,94729
2019-03-10T13:49:57.970Z,94672
2019-03-10T13:51:07.500Z,94732
2019-03-10T13:52:17.054Z,94688
2019-03-10T13:53:26.571Z,94656
2019-03-10T13:54:36.088Z,94656
2019-03-10T13:55:45.634Z,94690
2019-03-10T13:56:55.143Z,94671
2019-03-10T13:58:04.688Z,94642
2019-03-10T13:59:14.217Z,94644
2019-03-10T14:00:23.739Z,94661
2019-03-10T14:01:33.263Z,94705
2019-03-10T14:02:42.830Z,94650
2019-03-10T14:03:52.345Z,94676
2019-03-10T14:05:02.971Z,94681
2019-03-10T14:06:12.495Z,94662
2019-03-10T14:07:22.006Z,94643
2019-03-10T14:08:31.518Z,94649
2019-03-10T14:09:41.073Z,94665
2019-03-10T14:10:50.565Z,94672
2019-03-10T14:12:00.083Z,94697
2019-03-10T14:13:09.598Z,94728
2019-03-10T14:14:19.110Z,94651
2019-03-10T14:15:28.608Z,94645
2019-03-10T14:16:38.131Z,94644
2019-03-10T14:17:47.652Z,94655
2019-03-10T14:18:57.676Z,94628
2019-03-10T14:20:07.178Z,94687
2019-03-10T14:21:16.704Z,94751
2019-03-10T14:22:26.220Z,94641
2019-03-10T14:23:35.731Z,94671
2019-03-10T14:24:45.243Z,94644
2019-03-10T14:25:54.763Z,94657
2019-03-10T14:27:04.314Z,94707
2019-03-10T14:28:13.840Z,94651
2019-03-10T14:29:24.333Z,94642
2019-03-10T14:30:33.858Z,94650
2019-03-10T14:31:43.388Z,94646
2019-03-10T14:32:52.882Z,94657
2019-03-10T14:34:03.395Z,94645
2019-03-10T14:35:12.920Z,94736
2019-03-10T14:36:22.453Z,94688
2019-03-10T14:37:31.962Z,94683
2019-03-10T14:38:41.468Z,94673
2019-03-10T14:39:50.976Z,94678
2019-03-10T14:41:00.494Z,94627
2019-03-10T14:42:10.001Z,94674
2019-03-10T14:43:19.525Z,94666
2019-03-10T14:44:29.032Z,94692
2019-03-10T14:45:38.528Z,94786
2019-03-10T14:46:48.054Z,94657
2019-03-10T14:47:57.582Z,94707
2019-03-10T14:49:07.123Z,94723
2019-03-10T14:50:17.609Z,94677
2019-03-10T14:51:27.127Z,94680
2019-03-10T14:52:36.686Z,94645
2019-03-10T14:53:46.256Z,94688
2019-03-10T14:54:55.698Z,94666